Time;durP1;ratioP1;P1;durP2;ratioP2;P2;SDS_P1;SDS_P2;PMS_P1;PMS_P2;Temp;Humidity;BMP_temperature;BMP_pressure;BME280_temperature;BME280_humidity;BME280_pressure;Samples;Min_cycle;Max_cycle;Signal;HPM_P1;HPM_P2
2022/12/09 00:01:27;;;;;;;30.23;16.08;;;;;;;;;;5072367;28;20068;-80
2022/12/09 00:03:54;;;;;;;29.73;14.15;;;;;;;;;;5072440;28;20080;-82
2022/12/09 00:06:22;;;;;;;36.15;16.42;;;;;;;;;;5106930;28;20052;-81
2022/12/09 00:08:49;;;;;;;37.22;16.73;;;;;;;;;;5072720;28;20102;-80
2022/12/09 00:11:16;;;;;;;34.63;16.17;;;;;;;;;;5072760;28;20064;-81
2022/12/09 00:13:46;;;;;;;37.92;16.33;;;;;;;;;;5072002;28;20076;-81
2022/12/09 00:16:13;;;;;;;35.20;16.27;;;;;;;;;;5072150;28;20051;-81
2022/12/09 00:18:40;;;;;;;33.90;16.00;;;;;;;;;;5071903;28;20132;-80
2022/12/09 00:21:10;;;;;;;38.38;17.13;;;;;;;;;;5072024;28;20045;-81
2022/12/09 00:23:37;;;;;;;38.25;17.30;;;;;;;;;;5071107;28;20072;-80
2022/12/09 00:26:03;;;;;;;38.90;17.55;;;;;;;;;;5070311;28;20048;-80
2022/12/09 00:28:32;;;;;;;43.53;17.55;;;;;;;;;;5071504;28;20068;-80
2022/12/09 00:30:59;;;;;;;38.45;16.80;;;;;;;;;;5069378;28;20066;-80
2022/12/09 00:33:26;;;;;;;35.97;17.05;;;;;;;;;;5068911;28;20427;-80
2022/12/09 00:35:52;;;;;;;38.80;17.77;;;;;;;;;;5058468;28;20048;-79
2022/12/09 00:38:18;;;;;;;37.55;16.88;;;;;;;;;;5069181;28;20048;-80
2022/12/09 00:40:45;;;;;;;41.05;18.08;;;;;;;;;;5070659;28;20057;-81
2022/12/09 00:43:11;;;;;;;39.22;17.08;;;;;;;;;;5069317;28;20358;-81
2022/12/09 00:45:38;;;;;;;42.50;18.17;;;;;;;;;;5071333;28;20479;-82
2022/12/09 00:48:04;;;;;;;41.40;18.52;;;;;;;;;;5073099;28;20056;-82
2022/12/09 00:50:30;;;;;;;39.55;18.50;;;;;;;;;;5078060;28;20068;-81
2022/12/09 00:52:57;;;;;;;37.53;17.65;;;;;;;;;;5069786;28;20448;-81
2022/12/09 00:55:24;;;;;;;41.40;17.98;;;;;;;;;;5071180;28;20147;-81
2022/12/09 00:57:50;;;;;;;41.05;17.30;;;;;;;;;;5072650;28;20044;-81
2022/12/09 01:00:17;;;;;;;38.33;18.08;;;;;;;;;;5069151;28;20048;-81
2022/12/09 01:02:43;;;;;;;40.88;18.30;;;;;;;;;;5050846;28;20059;-81
2022/12/09 01:05:10;;;;;;;43.53;18.30;;;;;;;;;;5051036;28;20044;-81
2022/12/09 01:07:39;;;;;;;40.17;17.23;;;;;;;;;;5051939;28;20041;-80
2022/12/09 01:10:06;;;;;;;40.75;17.75;;;;;;;;;;5050140;28;20106;-81
2022/12/09 01:12:33;;;;;;;40.13;17.58;;;;;;;;;;5050928;28;20253;-81
2022/12/09 01:14:59;;;;;;;38.40;17.70;;;;;;;;;;5050021;28;20121;-81
2022/12/09 01:17:26;;;;;;;36.30;16.85;;;;;;;;;;5051985;28;20103;-81
2022/12/09 01:19:52;;;;;;;42.45;18.27;;;;;;;;;;5052239;28;20060;-81
2022/12/09 01:22:19;;;;;;;36.60;16.92;;;;;;;;;;5051857;28;20051;-79
2022/12/09 01:24:46;;;;;;;44.83;18.23;;;;;;;;;;5051814;28;20057;-81
2022/12/09 01:27:13;;;;;;;40.50;17.45;;;;;;;;;;5054545;28;20040;-81
2022/12/09 01:29:39;;;;;;;37.40;16.52;;;;;;;;;;5066601;28;20075;-80
2022/12/09 01:32:06;;;;;;;41.35;17.27;;;;;;;;;;5072787;28;20095;-81
2022/12/09 01:34:32;;;;;;;37.20;16.52;;;;;;;;;;5070916;28;20360;-80
2022/12/09 01:36:59;;;;;;;33.03;15.57;;;;;;;;;;5077728;28;20052;-81
2022/12/09 01:39:25;;;;;;;35.05;16.25;;;;;;;;;;5081658;28;20462;-81
2022/12/09 01:41:54;;;;;;;33.53;15.75;;;;;;;;;;5084474;28;20481;-81
2022/12/09 01:44:24;;;;;;;34.75;16.02;;;;;;;;;;5076522;28;20131;-81
2022/12/09 01:46:55;;;;;;;32.92;15.77;;;;;;;;;;5074913;28;20441;-79
2022/12/09 01:49:27;;;;;;;38.53;16.38;;;;;;;;;;5076408;28;20051;-79
2022/12/09 01:52:01;;;;;;;37.78;15.90;;;;;;;;;;5079012;28;20071;-80
2022/12/09 01:54:28;;;;;;;32.80;16.38;;;;;;;;;;5077406;28;20475;-79
2022/12/09 01:56:55;;;;;;;37.25;16.52;;;;;;;;;;5102543;28;20091;-80
2022/12/09 01:59:22;;;;;;;37.95;16.33;;;;;;;;;;5069899;28;20045;-80
2022/12/09 02:01:51;;;;;;;33.97;15.50;;;;;;;;;;5071233;28;20059;-81
2022/12/09 02:04:18;;;;;;;33.70;15.95;;;;;;;;;;5076289;28;20313;-81
2022/12/09 02:06:45;;;;;;;34.80;15.82;;;;;;;;;;5083710;28;20052;-79
2022/12/09 02:09:11;;;;;;;34.53;15.30;;;;;;;;;;5074380;28;20048;-81
2022/12/09 02:11:52;;;;;;;32.42;15.70;;;;;;;;;;5072049;28;20267;-81
2022/12/09 02:14:39;;;;;;;31.58;15.10;;;;;;;;;;5072391;28;20045;-81
2022/12/09 02:17:16;;;;;;;29.77;14.63;;;;;;;;;;5074988;28;20052;-83
2022/12/09 02:19:43;;;;;;;35.30;14.95;;;;;;;;;;5077223;28;20056;-82
2022/12/09 02:22:11;;;;;;;30.63;14.07;;;;;;;;;;5076491;28;20052;-81
2022/12/09 02:24:49;;;;;;;32.00;13.73;;;;;;;;;;5077485;28;20060;-80
2022/12/09 02:27:16;;;;;;;35.70;14.25;;;;;;;;;;5074960;28;20071;-80
2022/12/09 02:29:58;;;;;;;30.35;13.50;;;;;;;;;;5072641;28;20094;-80
2022/12/09 02:32:44;;;;;;;32.33;14.18;;;;;;;;;;5105934;28;20179;-81
2022/12/09 02:35:14;;;;;;;30.05;14.43;;;;;;;;;;5054695;28;20181;-80
2022/12/09 02:37:50;;;;;;;35.47;15.77;;;;;;;;;;5060260;28;20059;-81
2022/12/09 02:40:20;;;;;;;29.23;14.27;;;;;;;;;;5056651;28;20055;-82
2022/12/09 02:42:47;;;;;;;31.10;14.02;;;;;;;;;;5053233;28;20049;-81
2022/12/09 02:45:14;;;;;;;28.52;13.88;;;;;;;;;;5055172;28;20501;-82
2022/12/09 02:47:45;;;;;;;30.15;14.10;;;;;;;;;;5055267;28;20041;-81
2022/12/09 02:50:14;;;;;;;29.30;14.75;;;;;;;;;;5056052;28;20076;-79
2022/12/09 02:52:41;;;;;;;32.10;13.60;;;;;;;;;;5054557;28;20052;-81
2022/12/09 02:55:08;;;;;;;27.92;14.13;;;;;;;;;;5055587;28;20047;-81
2022/12/09 02:57:36;;;;;;;31.73;13.27;;;;;;;;;;5061106;28;20051;-79
2022/12/09 03:00:04;;;;;;;29.88;13.50;;;;;;;;;;5061003;28;20064;-80
2022/12/09 03:02:34;;;;;;;26.45;12.95;;;;;;;;;;5059655;28;20132;-80
2022/12/09 03:05:15;;;;;;;25.20;12.73;;;;;;;;;;5059218;28;20045;-80
2022/12/09 03:07:54;;;;;;;26.80;11.57;;;;;;;;;;5055572;28;20058;-79
2022/12/09 03:10:20;;;;;;;24.35;10.98;;;;;;;;;;5053990;28;20094;-83
2022/12/09 03:12:51;;;;;;;24.13;11.30;;;;;;;;;;5052826;28;20059;-81
2022/12/09 03:15:24;;;;;;;23.70;12.15;;;;;;;;;;5051764;28;20051;-81
2022/12/09 03:17:51;;;;;;;23.95;11.57;;;;;;;;;;5054381;28;20048;-80
2022/12/09 03:20:23;;;;;;;24.20;11.57;;;;;;;;;;5054510;28;20056;-82
2022/12/09 03:22:52;;;;;;;23.70;11.75;;;;;;;;;;5052961;28;20123;-82
2022/12/09 03:25:22;;;;;;;25.38;11.68;;;;;;;;;;5060644;28;20049;-81
2022/12/09 03:27:56;;;;;;;24.35;11.73;;;;;;;;;;5053102;28;20067;-81
2022/12/09 03:30:25;;;;;;;22.92;11.05;;;;;;;;;;5054016;28;20119;-81
2022/12/09 03:32:53;;;;;;;24.50;10.93;;;;;;;;;;5054160;28;20053;-81
2022/12/09 03:35:28;;;;;;;25.27;11.60;;;;;;;;;;5065238;28;20044;-82
2022/12/09 03:38:00;;;;;;;25.13;11.52;;;;;;;;;;5058811;28;20418;-82
2022/12/09 03:40:28;;;;;;;24.42;12.05;;;;;;;;;;5053406;28;20428;-80
2022/12/09 03:43:02;;;;;;;25.45;11.85;;;;;;;;;;5053393;28;20071;-81
2022/12/09 03:45:30;;;;;;;30.70;12.40;;;;;;;;;;5053495;28;20132;-81
2022/12/09 03:47:58;;;;;;;28.63;12.38;;;;;;;;;;5053587;28;20485;-80
2022/12/09 03:50:27;;;;;;;27.08;12.35;;;;;;;;;;5054501;28;20132;-82
2022/12/09 03:53:09;;;;;;;27.48;12.13;;;;;;;;;;5052669;28;20049;-81
2022/12/09 03:55:41;;;;;;;27.13;12.10;;;;;;;;;;5052209;28;20087;-80
2022/12/09 03:58:09;;;;;;;24.85;12.32;;;;;;;;;;5053032;28;20477;-80
2022/12/09 04:00:36;;;;;;;25.67;12.20;;;;;;;;;;5053253;28;20546;-82
2022/12/09 04:03:04;;;;;;;26.67;13.32;;;;;;;;;;5052356;28;20477;-82
2022/12/09 04:05:31;;;;;;;27.55;12.77;;;;;;;;;;5054551;28;20056;-82
2022/12/09 04:07:57;;;;;;;25.80;12.98;;;;;;;;;;5054037;28;20048;-83
2022/12/09 04:10:24;;;;;;;25.73;13.02;;;;;;;;;;5053948;28;20105;-82
2022/12/09 04:12:51;;;;;;;27.13;13.10;;;;;;;;;;5058558;28;20075;-82
2022/12/09 04:15:17;;;;;;;26.73;12.52;;;;;;;;;;5055025;28;20063;-82
2022/12/09 04:17:44;;;;;;;23.77;11.85;;;;;;;;;;5054047;28;20130;-82
2022/12/09 04:20:11;;;;;;;23.80;11.90;;;;;;;;;;5053957;28;20147;-82
2022/12/09 04:22:40;;;;;;;26.05;12.07;;;;;;;;;;5052021;28;20139;-83
2022/12/09 04:25:07;;;;;;;24.35;12.27;;;;;;;;;;5054828;28;20059;-81
2022/12/09 04:27:34;;;;;;;23.48;11.75;;;;;;;;;;5058552;28;20041;-81
2022/12/09 04:30:00;;;;;;;25.42;12.68;;;;;;;;;;5060298;28;20140;-81
2022/12/09 04:32:28;;;;;;;25.33;12.00;;;;;;;;;;5068866;28;20049;-80
2022/12/09 04:34:54;;;;;;;28.05;12.75;;;;;;;;;;5054212;28;20102;-81
2022/12/09 04:37:21;;;;;;;31.10;13.55;;;;;;;;;;5071223;28;20053;-80
2022/12/09 04:39:47;;;;;;;26.33;12.07;;;;;;;;;;5055564;28;20084;-80
2022/12/09 04:42:14;;;;;;;27.80;13.23;;;;;;;;;;5051074;28;20084;-79
2022/12/09 04:44:40;;;;;;;26.63;12.60;;;;;;;;;;5053165;28;20059;-82
2022/12/09 04:47:07;;;;;;;24.30;12.57;;;;;;;;;;5052662;28;20156;-80
2022/12/09 04:49:34;;;;;;;25.50;12.90;;;;;;;;;;5052839;28;20107;-79
2022/12/09 04:52:00;;;;;;;28.48;12.90;;;;;;;;;;5083535;28;20585;-80
2022/12/09 04:54:27;;;;;;;28.15;12.38;;;;;;;;;;5051805;28;20079;-81
2022/12/09 04:56:54;;;;;;;23.77;11.65;;;;;;;;;;5053736;28;20082;-81
2022/12/09 04:59:20;;;;;;;23.60;10.98;;;;;;;;;;5052307;28;20053;-80
2022/12/09 05:01:47;;;;;;;23.05;11.20;;;;;;;;;;5049892;28;20064;-80
2022/12/09 05:04:13;;;;;;;24.17;11.20;;;;;;;;;;5083420;28;20048;-82
2022/12/09 05:06:40;;;;;;;25.58;11.23;;;;;;;;;;5083825;28;20045;-81
2022/12/09 05:09:11;;;;;;;24.27;11.35;;;;;;;;;;5053589;28;20398;-80
2022/12/09 05:11:38;;;;;;;25.48;11.70;;;;;;;;;;5053691;28;20283;-79
2022/12/09 05:14:05;;;;;;;26.85;11.77;;;;;;;;;;5051800;28;20098;-80
2022/12/09 05:16:31;;;;;;;24.33;11.65;;;;;;;;;;5083709;28;20319;-80
2022/12/09 05:18:58;;;;;;;24.70;11.15;;;;;;;;;;5052296;28;20080;-79
2022/12/09 05:21:25;;;;;;;27.50;12.48;;;;;;;;;;5052367;28;20086;-81
2022/12/09 05:23:51;;;;;;;24.83;12.27;;;;;;;;;;5084112;28;20075;-80
2022/12/09 05:26:19;;;;;;;27.98;12.00;;;;;;;;;;5082770;28;20045;-82
2022/12/09 05:28:46;;;;;;;28.70;12.43;;;;;;;;;;5051544;28;20045;-82
2022/12/09 05:31:13;;;;;;;22.35;11.68;;;;;;;;;;5051252;28;20045;-81
2022/12/09 05:33:41;;;;;;;22.65;11.23;;;;;;;;;;5050355;28;20053;-82
2022/12/09 05:36:12;;;;;;;24.25;10.40;;;;;;;;;;5062570;28;20113;-81
2022/12/09 05:38:39;;;;;;;21.58;10.02;;;;;;;;;;5071401;28;20361;-83
2022/12/09 05:41:06;;;;;;;21.98;10.93;;;;;;;;;;5067865;28;20083;-83
2022/12/09 05:43:33;;;;;;;21.80;11.43;;;;;;;;;;5048972;28;20052;-81
2022/12/09 05:46:00;;;;;;;20.35;10.32;;;;;;;;;;5050159;28;20099;-82
2022/12/09 05:48:27;;;;;;;23.35;9.95;;;;;;;;;;5050661;28;20156;-82
2022/12/09 05:51:01;;;;;;;20.90;10.15;;;;;;;;;;5050994;28;20132;-82
2022/12/09 05:53:28;;;;;;;21.45;10.27;;;;;;;;;;5050299;28;20068;-83
2022/12/09 05:55:55;;;;;;;23.92;10.40;;;;;;;;;;5084689;28;20099;-83
2022/12/09 05:58:21;;;;;;;22.25;11.10;;;;;;;;;;5052462;28;20080;-83
2022/12/09 06:00:48;;;;;;;20.50;10.52;;;;;;;;;;5051955;28;20171;-83
2022/12/09 06:03:15;;;;;;;22.60;9.75;;;;;;;;;;5051597;28;20167;-82
2022/12/09 06:05:42;;;;;;;17.50;9.25;;;;;;;;;;5051500;28;20549;-82
2022/12/09 06:08:09;;;;;;;22.08;10.77;;;;;;;;;;5051439;28;20124;-82
2022/12/09 06:10:39;;;;;;;22.38;10.05;;;;;;;;;;5054188;28;20059;-83
2022/12/09 06:13:06;;;;;;;21.50;10.68;;;;;;;;;;5050453;28;20045;-81
2022/12/09 06:15:33;;;;;;;18.67;9.95;;;;;;;;;;5052410;28;20048;-84
2022/12/09 06:18:00;;;;;;;23.45;11.82;;;;;;;;;;5052928;28;20053;-81
2022/12/09 06:20:27;;;;;;;22.98;11.02;;;;;;;;;;5049492;28;20461;-82
2022/12/09 06:22:54;;;;;;;23.20;11.50;;;;;;;;;;5050780;28;20218;-81
2022/12/09 06:25:21;;;;;;;19.10;10.52;;;;;;;;;;5051760;28;20053;-81
2022/12/09 06:27:47;;;;;;;23.73;11.45;;;;;;;;;;5052130;28;20052;-81
2022/12/09 06:30:13;;;;;;;25.00;10.13;;;;;;;;;;5051743;28;20049;-81
2022/12/09 06:32:40;;;;;;;23.20;11.73;;;;;;;;;;5051246;28;20049;-81
2022/12/09 06:35:07;;;;;;;21.65;10.88;;;;;;;;;;5059082;28;20080;-81
2022/12/09 06:37:34;;;;;;;21.20;10.27;;;;;;;;;;5062845;28;20048;-81
2022/12/09 06:40:01;;;;;;;22.75;11.07;;;;;;;;;;5070331;28;20448;-82
2022/12/09 06:42:27;;;;;;;21.45;11.27;;;;;;;;;;5069409;28;20060;-81
2022/12/09 06:44:54;;;;;;;21.70;10.88;;;;;;;;;;5067956;28;20076;-81
2022/12/09 06:47:21;;;;;;;26.20;12.38;;;;;;;;;;5071363;28;20070;-82
2022/12/09 06:49:48;;;;;;;22.00;11.15;;;;;;;;;;5071108;28;20087;-82
2022/12/09 06:52:14;;;;;;;21.48;10.80;;;;;;;;;;5071850;28;20044;-81
2022/12/09 06:54:41;;;;;;;22.60;10.82;;;;;;;;;;5071881;28;20045;-81
2022/12/09 06:57:07;;;;;;;23.55;11.60;;;;;;;;;;5071627;28;20056;-83
2022/12/09 06:59:34;;;;;;;24.13;11.27;;;;;;;;;;5078307;28;20049;-82
2022/12/09 07:02:01;;;;;;;22.58;11.02;;;;;;;;;;5080663;28;20059;-80
2022/12/09 07:04:28;;;;;;;25.30;11.43;;;;;;;;;;5085211;28;20048;-83
2022/12/09 07:06:55;;;;;;;21.38;10.77;;;;;;;;;;5089829;28;20225;-82
2022/12/09 07:09:22;;;;;;;21.63;11.73;;;;;;;;;;5089881;28;20059;-82
2022/12/09 07:11:49;;;;;;;23.40;11.27;;;;;;;;;;5090112;28;20036;-82
2022/12/09 07:14:19;;;;;;;22.52;11.07;;;;;;;;;;5089921;28;20048;-81
2022/12/09 07:16:46;;;;;;;23.05;10.98;;;;;;;;;;5089098;28;20048;-83
2022/12/09 07:19:17;;;;;;;22.48;11.13;;;;;;;;;;5088579;28;20048;-82
2022/12/09 07:21:44;;;;;;;24.25;11.20;;;;;;;;;;5082881;28;20087;-83
2022/12/09 07:24:11;;;;;;;24.08;11.57;;;;;;;;;;5082174;28;20060;-80
2022/12/09 07:26:38;;;;;;;19.50;10.45;;;;;;;;;;5075118;28;20071;-80
2022/12/09 07:29:06;;;;;;;23.00;10.88;;;;;;;;;;5075332;28;20040;-81
2022/12/09 07:31:32;;;;;;;23.90;12.00;;;;;;;;;;5074382;28;20051;-83
2022/12/09 07:33:59;;;;;;;26.27;11.90;;;;;;;;;;5070069;28;20110;-82
2022/12/09 07:36:27;;;;;;;24.58;11.98;;;;;;;;;;5063936;28;20045;-83
2022/12/09 07:38:55;;;;;;;25.80;11.90;;;;;;;;;;5054927;28;20049;-82
2022/12/09 07:41:24;;;;;;;23.00;11.30;;;;;;;;;;5054864;28;20076;-82
2022/12/09 07:43:51;;;;;;;26.42;12.63;;;;;;;;;;5054046;28;20041;-83
2022/12/09 07:46:21;;;;;;;24.13;12.23;;;;;;;;;;5055064;28;20121;-82
2022/12/09 07:48:48;;;;;;;24.13;11.68;;;;;;;;;;5054448;28;20045;-82
2022/12/09 07:51:15;;;;;;;24.25;12.10;;;;;;;;;;5053274;28;20099;-81
2022/12/09 07:53:42;;;;;;;24.13;11.57;;;;;;;;;;5053550;28;20055;-81
2022/12/09 07:56:15;;;;;;;24.20;11.93;;;;;;;;;;5045962;28;20048;-81
2022/12/09 07:58:43;;;;;;;25.17;12.27;;;;;;;;;;5053287;28;20048;-80
2022/12/09 08:01:20;;;;;;;23.40;12.52;;;;;;;;;;5052781;28;20056;-82
2022/12/09 08:03:47;;;;;;;21.30;11.75;;;;;;;;;;5051307;28;20053;-83
2022/12/09 08:06:16;;;;;;;22.60;11.52;;;;;;;;;;5052328;28;20558;-83
2022/12/09 08:08:45;;;;;;;19.95;10.90;;;;;;;;;;5053027;28;20045;-82
2022/12/09 08:11:39;;;;;;;24.30;11.48;;;;;;;;;;5055271;28;20045;-81
2022/12/09 08:14:06;;;;;;;20.48;10.55;;;;;;;;;;5059818;28;20045;-82
2022/12/09 08:16:38;;;;;;;22.77;11.25;;;;;;;;;;5062823;28;20049;-81
2022/12/09 08:19:05;;;;;;;19.25;10.68;;;;;;;;;;5094840;28;20049;-80
2022/12/09 08:21:32;;;;;;;20.77;10.98;;;;;;;;;;5062622;28;20083;-81
2022/12/09 08:24:07;;;;;;;19.15;9.60;;;;;;;;;;5081576;28;20102;-82
2022/12/09 08:26:39;;;;;;;18.65;9.73;;;;;;;;;;5052358;28;20049;-81
2022/12/09 08:29:08;;;;;;;20.33;10.35;;;;;;;;;;5052332;28;20506;-82
2022/12/09 08:31:35;;;;;;;18.77;10.00;;;;;;;;;;5052388;28;20053;-81
2022/12/09 08:34:07;;;;;;;20.50;10.25;;;;;;;;;;5052540;28;20053;-81
2022/12/09 08:36:35;;;;;;;19.05;10.48;;;;;;;;;;5068217;28;20132;-81
2022/12/09 08:39:02;;;;;;;20.23;10.60;;;;;;;;;;5052963;28;20049;-82
2022/12/09 08:41:36;;;;;;;21.80;11.35;;;;;;;;;;5060743;28;20051;-82
2022/12/09 08:44:06;;;;;;;20.70;11.10;;;;;;;;;;5063046;28;20075;-81
2022/12/09 08:46:33;;;;;;;25.17;11.27;;;;;;;;;;5061951;28;20083;-82
2022/12/09 08:49:01;;;;;;;19.52;10.20;;;;;;;;;;5063631;28;20049;-81
2022/12/09 08:51:28;;;;;;;25.30;11.02;;;;;;;;;;5058025;28;20103;-82
2022/12/09 08:53:56;;;;;;;18.83;10.38;;;;;;;;;;5051629;28;20513;-83
2022/12/09 08:56:22;;;;;;;24.33;10.40;;;;;;;;;;5050472;28;20052;-83
2022/12/09 08:58:49;;;;;;;20.20;10.25;;;;;;;;;;5052213;28;20471;-81
2022/12/09 09:01:17;;;;;;;21.27;10.15;;;;;;;;;;5051618;28;20230;-82
2022/12/09 09:03:44;;;;;;;22.70;11.27;;;;;;;;;;5051499;28;20041;-81
2022/12/09 09:06:11;;;;;;;21.98;10.55;;;;;;;;;;5050882;28;20049;-82
2022/12/09 09:08:38;;;;;;;22.10;11.50;;;;;;;;;;5051281;28;20063;-82
2022/12/09 09:11:16;;;;;;;24.67;11.18;;;;;;;;;;5050784;28;20195;-82
2022/12/09 09:13:43;;;;;;;23.45;11.88;;;;;;;;;;5050049;28;20133;-83
2022/12/09 09:16:11;;;;;;;23.65;11.55;;;;;;;;;;5050927;28;20061;-81
2022/12/09 09:18:38;;;;;;;25.05;12.02;;;;;;;;;;5052102;28;20206;-81
2022/12/09 09:21:06;;;;;;;22.23;10.98;;;;;;;;;;5052171;28;20049;-81
2022/12/09 09:23:33;;;;;;;25.05;11.40;;;;;;;;;;5051276;28;20052;-81
2022/12/09 09:26:00;;;;;;;23.15;11.82;;;;;;;;;;5051321;28;20048;-82
2022/12/09 09:28:27;;;;;;;24.17;11.18;;;;;;;;;;5051960;28;20048;-80
2022/12/09 09:30:58;;;;;;;23.65;12.07;;;;;;;;;;5051340;28;20061;-81
2022/12/09 09:33:25;;;;;;;22.75;11.25;;;;;;;;;;5051226;28;20592;-82
2022/12/09 09:35:58;;;;;;;25.63;12.45;;;;;;;;;;5068933;28;20075;-83
2022/12/09 09:38:31;;;;;;;22.25;12.13;;;;;;;;;;5049601;28;20033;-82
2022/12/09 09:40:59;;;;;;;21.25;11.23;;;;;;;;;;5053434;28;20093;-83
2022/12/09 09:43:29;;;;;;;20.85;11.18;;;;;;;;;;5045704;28;20452;-81
2022/12/09 09:45:57;;;;;;;24.95;12.32;;;;;;;;;;5030965;28;20057;-80
2022/12/09 09:48:30;;;;;;;26.65;12.13;;;;;;;;;;5031706;28;20049;-81
2022/12/09 09:51:06;;;;;;;26.60;11.88;;;;;;;;;;5030785;28;20053;-81
2022/12/09 09:53:34;;;;;;;26.45;11.98;;;;;;;;;;5028954;28;20046;-82
2022/12/09 09:56:04;;;;;;;24.65;11.05;;;;;;;;;;5030482;28;20046;-82
2022/12/09 09:58:31;;;;;;;22.48;11.35;;;;;;;;;;5031093;28;20069;-80
2022/12/09 10:00:57;;;;;;;22.85;11.93;;;;;;;;;;5030907;28;20108;-80
2022/12/09 10:03:33;;;;;;;18.13;10.02;;;;;;;;;;5031342;28;20080;-79
2022/12/09 10:06:10;;;;;;;22.08;11.00;;;;;;;;;;5032608;28;20140;-79
2022/12/09 10:08:40;;;;;;;20.02;11.02;;;;;;;;;;5030941;28;20053;-80
2022/12/09 10:11:13;;;;;;;20.00;10.68;;;;;;;;;;5030103;28;20042;-80
2022/12/09 10:13:43;;;;;;;21.05;10.77;;;;;;;;;;5029888;28;20064;-79
2022/12/09 10:16:13;;;;;;;20.15;10.85;;;;;;;;;;5029802;28;20050;-80
2022/12/09 10:18:48;;;;;;;18.70;10.00;;;;;;;;;;5029938;28;20052;-80
2022/12/09 10:21:16;;;;;;;19.23;10.43;;;;;;;;;;5028338;28;20506;-81
2022/12/09 10:23:44;;;;;;;19.48;10.23;;;;;;;;;;5029219;28;20053;-81
2022/12/09 10:26:27;;;;;;;22.02;10.80;;;;;;;;;;5060610;28;20072;-80
2022/12/09 10:29:10;;;;;;;16.92;9.07;;;;;;;;;;5029866;28;20053;-80
2022/12/09 10:31:37;;;;;;;19.60;9.65;;;;;;;;;;5026990;28;20056;-84
2022/12/09 10:34:04;;;;;;;15.77;8.63;;;;;;;;;;5035664;28;20041;-80
2022/12/09 10:36:31;;;;;;;18.05;8.40;;;;;;;;;;5060834;28;20093;-81
2022/12/09 10:39:02;;;;;;;13.60;8.30;;;;;;;;;;5101345;28;20049;-81
2022/12/09 10:44:23;;;;;;;16.27;8.52;;;;;;;;;;5052781;28;20051;-81
2022/12/09 10:47:06;;;;;;;15.93;8.68;;;;;;;;;;5054534;28;20072;-81
2022/12/09 10:49:34;;;;;;;17.55;8.82;;;;;;;;;;5055817;28;20302;-79
2022/12/09 10:52:03;;;;;;;20.27;9.10;;;;;;;;;;5059092;28;20045;-79
2022/12/09 10:54:39;;;;;;;20.02;9.60;;;;;;;;;;5056517;28;20053;-82
2022/12/09 10:57:14;;;;;;;17.25;9.35;;;;;;;;;;5055248;28;20052;-82
2022/12/09 10:59:54;;;;;;;23.00;9.75;;;;;;;;;;5054938;28;20103;-83
2022/12/09 11:02:21;;;;;;;18.88;9.43;;;;;;;;;;5086399;28;20454;-81
2022/12/09 11:04:48;;;;;;;17.08;8.75;;;;;;;;;;5055518;28;20520;-82
2022/12/09 11:07:17;;;;;;;18.45;8.93;;;;;;;;;;5058558;28;20045;-82
2022/12/09 11:09:49;;;;;;;18.92;8.77;;;;;;;;;;5089234;28;20492;-83
2022/12/09 11:12:16;;;;;;;17.13;9.20;;;;;;;;;;5053266;28;20509;-79
2022/12/09 11:14:50;;;;;;;17.08;8.10;;;;;;;;;;5053785;28;20052;-80
2022/12/09 11:17:22;;;;;;;13.90;7.72;;;;;;;;;;5054535;28;20076;-81
2022/12/09 11:20:09;;;;;;;13.90;7.45;;;;;;;;;;5055177;28;20052;-81
2022/12/09 11:22:39;;;;;;;12.63;7.15;;;;;;;;;;5036411;28;20413;-82
2022/12/09 11:25:36;;;;;;;13.82;6.50;;;;;;;;;;5055008;28;20084;-81
2022/12/09 11:28:03;;;;;;;12.02;6.40;;;;;;;;;;5037790;28;20049;-82
2022/12/09 11:30:34;;;;;;;10.07;5.88;;;;;;;;;;5054266;28;20091;-81
2022/12/09 11:33:04;;;;;;;17.33;6.70;;;;;;;;;;5054412;28;20053;-81
2022/12/09 11:35:43;;;;;;;14.63;6.75;;;;;;;;;;5065216;28;20045;-81
2022/12/09 11:38:28;;;;;;;14.23;7.18;;;;;;;;;;5054040;28;20517;-82
2022/12/09 11:41:01;;;;;;;14.75;7.40;;;;;;;;;;5055194;28;20049;-80
2022/12/09 11:43:32;;;;;;;14.02;6.68;;;;;;;;;;5050907;28;20449;-81
2022/12/09 11:45:59;;;;;;;12.02;6.65;;;;;;;;;;5052586;28;20075;-80
2022/12/09 11:48:27;;;;;;;11.93;6.95;;;;;;;;;;5051443;28;20509;-79
2022/12/09 11:51:04;;;;;;;11.55;6.13;;;;;;;;;;5053434;28;20045;-81
2022/12/09 11:53:35;;;;;;;12.02;6.75;;;;;;;;;;5053000;28;20053;-79
2022/12/09 11:56:13;;;;;;;15.32;6.40;;;;;;;;;;5071093;28;20080;-83
2022/12/09 11:58:47;;;;;;;11.73;6.25;;;;;;;;;;5069361;28;20049;-81
2022/12/09 12:01:43;;;;;;;11.68;6.15;;;;;;;;;;5050597;28;20045;-80
2022/12/09 12:04:14;;;;;;;13.95;6.85;;;;;;;;;;5051268;28;20061;-79
2022/12/09 12:06:45;;;;;;;16.52;7.38;;;;;;;;;;5051772;28;20099;-79
2022/12/09 12:09:14;;;;;;;13.70;6.55;;;;;;;;;;5051999;28;20049;-80
2022/12/09 12:12:03;;;;;;;13.48;6.78;;;;;;;;;;5054332;28;20064;-79
2022/12/09 12:14:34;;;;;;;13.65;6.70;;;;;;;;;;5050697;28;20045;-81
2022/12/09 12:17:19;;;;;;;12.65;6.82;;;;;;;;;;5053986;28;20056;-81
2022/12/09 12:19:50;;;;;;;12.80;6.60;;;;;;;;;;5054103;28;20068;-82
2022/12/09 12:22:22;;;;;;;14.60;7.35;;;;;;;;;;5052951;28;20056;-81
2022/12/09 12:25:02;;;;;;;13.35;7.20;;;;;;;;;;5052865;28;20056;-81
2022/12/09 12:27:35;;;;;;;12.93;6.28;;;;;;;;;;5062420;28;20068;-81
2022/12/09 12:30:08;;;;;;;16.65;7.40;;;;;;;;;;5061214;28;20069;-81
2022/12/09 12:32:53;;;;;;;13.38;6.53;;;;;;;;;;5060929;28;20049;-79
2022/12/09 12:35:49;;;;;;;14.88;6.70;;;;;;;;;;5074483;28;20107;-81
2022/12/09 12:38:26;;;;;;;13.25;6.43;;;;;;;;;;5086248;28;20140;-81
2022/12/09 12:40:52;;;;;;;13.27;6.53;;;;;;;;;;5090699;28;20188;-82
2022/12/09 12:46:19;;;;;;;13.73;6.88;;;;;;;;;;5091695;28;20053;-82
2022/12/09 12:49:11;;;;;;;15.45;7.78;;;;;;;;;;5090313;28;20110;-81
2022/12/09 12:51:57;;;;;;;18.92;8.45;;;;;;;;;;5085104;28;20048;-81
2022/12/09 12:54:44;;;;;;;18.17;8.75;;;;;;;;;;5082598;28;20045;-81
2022/12/09 12:57:19;;;;;;;19.00;8.77;;;;;;;;;;5073788;28;20119;-81
2022/12/09 12:59:52;;;;;;;17.63;8.52;;;;;;;;;;5072397;28;20059;-81
2022/12/09 13:02:30;;;;;;;19.65;9.25;;;;;;;;;;5070602;28;20491;-80
2022/12/09 13:04:59;;;;;;;18.48;8.85;;;;;;;;;;5072565;28;20052;-80
2022/12/09 13:07:28;;;;;;;19.55;10.07;;;;;;;;;;5072738;28;20101;-81
2022/12/09 13:09:58;;;;;;;24.58;9.13;;;;;;;;;;5073352;28;20045;-80
2022/12/09 13:15:15;;;;;;;19.15;8.98;;;;;;;;;;5082066;28;20131;-80
2022/12/09 13:17:43;;;;;;;20.52;10.23;;;;;;;;;;5080083;28;20073;-79
2022/12/09 13:20:19;;;;;;;21.48;10.25;;;;;;;;;;5082827;28;20048;-80
2022/12/09 13:22:56;;;;;;;30.20;11.98;;;;;;;;;;5085051;28;20072;-80
2022/12/09 13:25:43;;;;;;;23.15;11.18;;;;;;;;;;5069187;28;20039;-81
2022/12/09 13:28:29;;;;;;;25.95;10.63;;;;;;;;;;5060335;28;20059;-79
2022/12/09 13:30:57;;;;;;;24.15;11.18;;;;;;;;;;5054405;28;20049;-78
2022/12/09 13:33:30;;;;;;;25.58;12.07;;;;;;;;;;5059084;28;20448;-80
2022/12/09 13:35:56;;;;;;;28.70;11.55;;;;;;;;;;5059639;28;20068;-82
2022/12/09 13:38:32;;;;;;;24.42;11.50;;;;;;;;;;5052213;28;20056;-80
2022/12/09 13:40:59;;;;;;;23.25;10.50;;;;;;;;;;5051616;28;20072;-80
2022/12/09 13:43:27;;;;;;;25.02;10.52;;;;;;;;;;5050555;28;20386;-84
2022/12/09 13:45:55;;;;;;;22.25;10.57;;;;;;;;;;5051623;28;20049;-81
2022/12/09 13:48:22;;;;;;;22.80;10.30;;;;;;;;;;5052183;28;20051;-81
2022/12/09 13:50:53;;;;;;;24.05;10.35;;;;;;;;;;5052899;28;20524;-80
2022/12/09 13:53:19;;;;;;;24.13;10.52;;;;;;;;;;5052644;28;20067;-81
2022/12/09 13:55:48;;;;;;;23.33;10.55;;;;;;;;;;5053773;28;20060;-82
2022/12/09 13:58:24;;;;;;;23.02;10.07;;;;;;;;;;5053245;28;20049;-82
2022/12/09 14:00:59;;;;;;;25.05;11.50;;;;;;;;;;5053978;28;20131;-80
2022/12/09 14:03:38;;;;;;;39.22;11.73;;;;;;;;;;5049218;28;20543;-80
2022/12/09 14:06:16;;;;;;;25.48;10.82;;;;;;;;;;5048960;28;20465;-81
2022/12/09 14:08:50;;;;;;;23.13;10.32;;;;;;;;;;5052619;28;20049;-82
2022/12/09 14:11:36;;;;;;;24.33;10.93;;;;;;;;;;5077292;28;20107;-80
2022/12/09 14:14:21;;;;;;;29.17;11.40;;;;;;;;;;5056138;28;20048;-80
2022/12/09 14:16:58;;;;;;;26.58;10.40;;;;;;;;;;5055862;28;20049;-79
2022/12/09 14:19:25;;;;;;;27.52;10.80;;;;;;;;;;5085870;28;20055;-81
2022/12/09 14:22:17;;;;;;;23.00;10.35;;;;;;;;;;5055126;28;20507;-81
2022/12/09 14:24:50;;;;;;;31.42;11.75;;;;;;;;;;5087443;28;20136;-81
2022/12/09 14:27:19;;;;;;;30.25;11.00;;;;;;;;;;5058168;28;20045;-83
2022/12/09 14:29:56;;;;;;;29.58;10.95;;;;;;;;;;5059411;28;20120;-82
2022/12/09 14:32:23;;;;;;;24.48;10.52;;;;;;;;;;5088928;28;20072;-82
2022/12/09 14:35:00;;;;;;;28.10;10.77;;;;;;;;;;5089085;28;20444;-81
2022/12/09 14:37:34;;;;;;;24.58;10.60;;;;;;;;;;5060096;28;20494;-81
2022/12/09 14:40:13;;;;;;;25.90;11.00;;;;;;;;;;5068089;28;20025;-83
2022/12/09 14:42:43;;;;;;;24.48;10.38;;;;;;;;;;5074624;28;20056;-83
2022/12/09 14:45:23;;;;;;;28.55;11.32;;;;;;;;;;5106649;28;20220;-82